Time;durP1;ratioP1;P1;durP2;ratioP2;P2;SDS_P1;SDS_P2;PMS_P1;PMS_P2;Temp;Humidity;BMP_temperature;BMP_pressure;BME280_temperature;BME280_humidity;BME280_pressure;Samples;Min_cycle;Max_cycle;Signal;HPM_P1;HPM_P2
2024/01/02 00:01:26;;;;;;;3.72;1.58;;;;;;;;;;5038818;28;20518;-68
2024/01/02 00:03:59;;;;;;;7.50;1.70;;;;;;;;;;5039048;28;20489;-68
2024/01/02 00:06:29;;;;;;;6.93;1.58;;;;;;;;;;5039065;28;20503;-68
2024/01/02 00:08:59;;;;;;;4.30;1.27;;;;;;;;;;5044669;28;20495;-68
2024/01/02 00:11:26;;;;;;;5.50;1.38;;;;;;;;;;5037218;28;20448;-68
2024/01/02 00:13:55;;;;;;;5.18;1.27;;;;;;;;;;5048479;28;20484;-68
2024/01/02 00:16:23;;;;;;;3.72;1.25;;;;;;;;;;5043779;28;20434;-69
2024/01/02 00:18:50;;;;;;;7.15;1.20;;;;;;;;;;5044128;28;20490;-68
2024/01/02 00:21:17;;;;;;;5.73;1.23;;;;;;;;;;5040026;28;20798;-68
2024/01/02 00:23:44;;;;;;;4.22;1.30;;;;;;;;;;5048069;28;20525;-68
2024/01/02 00:26:11;;;;;;;3.72;1.90;;;;;;;;;;5035850;28;20441;-68
2024/01/02 00:28:39;;;;;;;4.22;1.40;;;;;;;;;;5039059;28;20429;-68
2024/01/02 00:31:06;;;;;;;3.30;1.38;;;;;;;;;;5040380;28;20437;-67
2024/01/02 00:33:33;;;;;;;4.37;1.23;;;;;;;;;;5038375;28;20518;-68
2024/01/02 00:36:04;;;;;;;6.28;1.48;;;;;;;;;;5042021;28;20438;-68
2024/01/02 00:38:33;;;;;;;6.05;1.60;;;;;;;;;;5042973;28;20429;-67
2024/01/02 00:41:00;;;;;;;3.63;1.20;;;;;;;;;;5042479;28;20903;-68
2024/01/02 00:43:28;;;;;;;2.22;1.13;;;;;;;;;;5039275;28;20456;-68
2024/01/02 00:45:56;;;;;;;4.90;1.35;;;;;;;;;;5042408;28;20436;-68
2024/01/02 00:48:23;;;;;;;5.05;1.50;;;;;;;;;;5034698;28;20431;-68
2024/01/02 00:50:53;;;;;;;3.55;1.25;;;;;;;;;;5041523;28;20440;-68
2024/01/02 00:53:20;;;;;;;4.68;1.40;;;;;;;;;;5041809;28;21131;-68
2024/01/02 00:55:48;;;;;;;3.53;1.33;;;;;;;;;;5039155;28;20870;-68
2024/01/02 00:58:17;;;;;;;4.78;1.30;;;;;;;;;;5040611;28;20430;-68
2024/01/02 01:00:44;;;;;;;3.33;1.27;;;;;;;;;;5038773;28;20919;-68
2024/01/02 01:03:13;;;;;;;3.95;1.05;;;;;;;;;;5041753;28;20435;-68
2024/01/02 01:05:40;;;;;;;3.80;1.17;;;;;;;;;;5031927;28;20431;-68
2024/01/02 01:08:07;;;;;;;1.95;0.90;;;;;;;;;;5041034;28;20855;-67
2024/01/02 01:10:35;;;;;;;3.58;1.17;;;;;;;;;;5040182;28;20429;-67
2024/01/02 01:13:02;;;;;;;3.55;1.02;;;;;;;;;;5045353;28;20465;-68
2024/01/02 01:15:32;;;;;;;3.13;1.38;;;;;;;;;;5040195;28;20437;-67
2024/01/02 01:18:00;;;;;;;2.40;1.10;;;;;;;;;;5039441;28;20447;-67
2024/01/02 01:20:27;;;;;;;4.20;1.05;;;;;;;;;;5046951;28;20437;-67
2024/01/02 01:22:57;;;;;;;2.33;1.23;;;;;;;;;;5048817;28;20483;-67
2024/01/02 01:25:27;;;;;;;4.27;1.13;;;;;;;;;;5038004;28;20509;-68
2024/01/02 01:27:54;;;;;;;2.67;1.30;;;;;;;;;;5042626;28;20513;-67
2024/01/02 01:30:21;;;;;;;4.53;1.60;;;;;;;;;;5037585;28;20528;-68
2024/01/02 01:32:48;;;;;;;3.58;1.27;;;;;;;;;;5034636;28;20901;-68
2024/01/02 01:35:16;;;;;;;2.05;1.10;;;;;;;;;;5043784;28;20425;-68
2024/01/02 01:37:43;;;;;;;4.45;1.20;;;;;;;;;;5040261;28;20761;-68
2024/01/02 01:40:10;;;;;;;4.30;1.27;;;;;;;;;;5037121;28;20466;-68
2024/01/02 01:42:38;;;;;;;3.78;1.00;;;;;;;;;;5033286;28;20431;-68
2024/01/02 01:45:08;;;;;;;4.30;1.05;;;;;;;;;;5040745;28;20446;-69
2024/01/02 01:47:35;;;;;;;2.65;1.10;;;;;;;;;;5046556;28;20428;-69
2024/01/02 01:50:03;;;;;;;3.55;1.33;;;;;;;;;;5029347;28;20439;-69
2024/01/02 01:52:34;;;;;;;3.63;1.10;;;;;;;;;;5036587;28;20591;-69
2024/01/02 01:55:02;;;;;;;4.80;1.50;;;;;;;;;;5045998;28;20439;-69
2024/01/02 01:57:29;;;;;;;2.88;1.20;;;;;;;;;;5031939;28;20878;-69
2024/01/02 01:59:59;;;;;;;3.43;1.20;;;;;;;;;;5040716;28;20468;-69
2024/01/02 02:02:26;;;;;;;4.73;1.50;;;;;;;;;;5048388;28;20465;-69
2024/01/02 02:04:54;;;;;;;5.03;1.27;;;;;;;;;;5036055;28;20522;-69
2024/01/02 02:07:21;;;;;;;5.63;1.43;;;;;;;;;;5044768;28;20426;-69
2024/01/02 02:09:50;;;;;;;3.57;1.27;;;;;;;;;;5031773;28;20472;-69
2024/01/02 02:12:18;;;;;;;4.93;1.20;;;;;;;;;;5042690;28;20431;-69
2024/01/02 02:14:45;;;;;;;4.78;1.33;;;;;;;;;;5042795;28;20502;-69
2024/01/02 02:17:29;;;;;;;3.08;1.10;;;;;;;;;;5042752;28;20431;-69
2024/01/02 02:19:56;;;;;;;5.03;1.20;;;;;;;;;;5038259;28;20430;-69
2024/01/02 02:22:33;;;;;;;2.50;1.00;;;;;;;;;;5046257;28;20516;-69
2024/01/02 02:25:04;;;;;;;3.58;0.90;;;;;;;;;;5048443;28;20479;-69
2024/01/02 02:27:32;;;;;;;1.13;1.00;;;;;;;;;;5040493;28;20451;-69
2024/01/02 02:29:59;;;;;;;2.80;1.20;;;;;;;;;;5045935;28;20425;-70
2024/01/02 02:32:27;;;;;;;5.53;1.30;;;;;;;;;;5032570;28;20449;-70
2024/01/02 02:34:57;;;;;;;4.43;1.05;;;;;;;;;;5040805;28;20433;-69
2024/01/02 02:37:24;;;;;;;1.25;1.00;;;;;;;;;;5047685;28;20442;-70
2024/01/02 02:39:51;;;;;;;4.40;1.13;;;;;;;;;;5046155;28;20507;-70
2024/01/02 02:42:22;;;;;;;4.13;1.00;;;;;;;;;;5033279;28;20816;-71
2024/01/02 02:44:49;;;;;;;1.38;1.00;;;;;;;;;;5034445;28;20427;-71
2024/01/02 02:47:16;;;;;;;4.45;1.13;;;;;;;;;;5036808;28;20434;-71
2024/01/02 02:49:43;;;;;;;1.95;0.80;;;;;;;;;;5044643;28;20576;-71
2024/01/02 02:52:11;;;;;;;2.42;1.08;;;;;;;;;;5046615;28;20550;-71
2024/01/02 02:54:38;;;;;;;2.65;1.15;;;;;;;;;;5037198;28;20522;-71
2024/01/02 02:57:05;;;;;;;1.98;0.90;;;;;;;;;;5036567;28;20943;-71
2024/01/02 02:59:32;;;;;;;1.73;0.90;;;;;;;;;;5036652;28;20431;-72
2024/01/02 03:02:02;;;;;;;2.70;0.80;;;;;;;;;;5036035;28;20889;-72
2024/01/02 03:04:32;;;;;;;2.20;1.03;;;;;;;;;;5035519;28;20434;-72
2024/01/02 03:06:59;;;;;;;1.38;0.80;;;;;;;;;;5042770;28;20510;-72
2024/01/02 03:09:27;;;;;;;2.70;1.00;;;;;;;;;;5038576;28;20901;-72
2024/01/02 03:11:54;;;;;;;3.90;1.00;;;;;;;;;;5037912;28;20487;-73
2024/01/02 03:14:21;;;;;;;1.75;0.80;;;;;;;;;;5045406;28;21073;-72
2024/01/02 03:16:48;;;;;;;2.30;0.83;;;;;;;;;;5039934;28;20436;-72
2024/01/02 03:19:15;;;;;;;2.90;0.98;;;;;;;;;;5043907;28;20537;-73
2024/01/02 03:21:42;;;;;;;0.70;0.60;;;;;;;;;;5034918;28;20491;-72
2024/01/02 03:24:10;;;;;;;3.92;0.90;;;;;;;;;;5040394;28;20463;-72
2024/01/02 03:26:37;;;;;;;3.07;0.83;;;;;;;;;;5031872;28;20427;-73
2024/01/02 03:29:04;;;;;;;2.20;0.80;;;;;;;;;;5043304;28;20488;-72
2024/01/02 03:31:31;;;;;;;1.85;0.90;;;;;;;;;;5042382;28;20427;-72
2024/01/02 03:33:58;;;;;;;3.20;0.77;;;;;;;;;;5038062;28;20469;-72
2024/01/02 03:36:26;;;;;;;1.90;0.60;;;;;;;;;;5042968;28;20959;-72
2024/01/02 03:38:54;;;;;;;0.88;0.60;;;;;;;;;;5030969;28;20923;-72
2024/01/02 03:41:21;;;;;;;0.75;0.60;;;;;;;;;;5039932;28;20437;-72
2024/01/02 03:43:49;;;;;;;0.70;0.50;;;;;;;;;;5030188;28;20974;-73
2024/01/02 03:46:16;;;;;;;1.02;0.60;;;;;;;;;;5046689;28;20512;-73
2024/01/02 03:48:43;;;;;;;1.50;0.50;;;;;;;;;;5043568;28;20429;-72
2024/01/02 03:51:11;;;;;;;2.20;0.93;;;;;;;;;;5044118;28;20427;-72
2024/01/02 03:53:39;;;;;;;1.70;0.50;;;;;;;;;;5040590;28;20499;-73
2024/01/02 03:56:06;;;;;;;1.25;0.60;;;;;;;;;;5038766;28;20459;-73
2024/01/02 03:58:33;;;;;;;1.20;0.60;;;;;;;;;;5035507;28;20440;-73
2024/01/02 04:01:00;;;;;;;1.15;0.68;;;;;;;;;;5032629;28;20984;-73
2024/01/02 04:03:28;;;;;;;1.70;0.70;;;;;;;;;;5040995;28;20439;-73
2024/01/02 04:05:55;;;;;;;0.70;0.60;;;;;;;;;;5040816;28;20445;-74
2024/01/02 04:08:24;;;;;;;1.70;0.52;;;;;;;;;;5039880;28;20426;-74
2024/01/02 04:10:52;;;;;;;1.02;0.57;;;;;;;;;;5039450;28;20430;-73
2024/01/02 04:13:19;;;;;;;1.35;0.50;;;;;;;;;;5039540;28;20486;-75
2024/01/02 04:15:49;;;;;;;1.20;0.60;;;;;;;;;;5036820;28;20430;-74
2024/01/02 04:18:16;;;;;;;0.80;0.50;;;;;;;;;;5043869;28;20825;-76
2024/01/02 04:20:44;;;;;;;0.50;0.50;;;;;;;;;;5044805;28;20445;-75
2024/01/02 04:23:11;;;;;;;3.63;0.60;;;;;;;;;;5042122;28;20423;-74
2024/01/02 04:25:38;;;;;;;0.60;0.60;;;;;;;;;;5039336;28;20423;-75
2024/01/02 04:28:06;;;;;;;0.87;0.50;;;;;;;;;;5047752;28;20961;-75
2024/01/02 04:30:36;;;;;;;0.98;0.60;;;;;;;;;;5051132;28;20512;-75
2024/01/02 04:33:04;;;;;;;0.70;0.53;;;;;;;;;;5042748;28;20535;-75
2024/01/02 04:35:34;;;;;;;1.42;0.70;;;;;;;;;;5044756;28;20435;-75
2024/01/02 04:38:01;;;;;;;0.75;0.55;;;;;;;;;;5035510;28;21067;-75
2024/01/02 04:40:28;;;;;;;0.60;0.60;;;;;;;;;;5038251;28;20431;-74
2024/01/02 04:42:55;;;;;;;0.70;0.70;;;;;;;;;;5039793;28;20995;-76
2024/01/02 04:45:23;;;;;;;1.80;0.50;;;;;;;;;;5038575;28;20430;-77
2024/01/02 04:47:50;;;;;;;0.70;0.40;;;;;;;;;;5045364;28;20429;-75
2024/01/02 04:50:18;;;;;;;1.40;0.50;;;;;;;;;;5031812;28;20465;-76
2024/01/02 04:52:48;;;;;;;1.58;0.68;;;;;;;;;;5043884;28;20435;-77
2024/01/02 04:55:18;;;;;;;0.93;0.40;;;;;;;;;;5039535;28;20834;-77
2024/01/02 04:57:45;;;;;;;0.40;0.40;;;;;;;;;;5038261;28;21007;-76
2024/01/02 05:00:13;;;;;;;1.60;0.40;;;;;;;;;;5037041;28;20985;-77
2024/01/02 05:02:40;;;;;;;1.30;0.60;;;;;;;;;;5038483;28;20432;-76
2024/01/02 05:05:07;;;;;;;2.80;0.70;;;;;;;;;;5047216;28;20436;-76
2024/01/02 05:07:34;;;;;;;1.60;0.57;;;;;;;;;;5036467;28;20503;-75
2024/01/02 05:10:02;;;;;;;0.52;0.50;;;;;;;;;;5041662;28;20502;-78
2024/01/02 05:12:29;;;;;;;0.70;0.40;;;;;;;;;;5038703;28;20469;-75
2024/01/02 05:14:59;;;;;;;0.60;0.40;;;;;;;;;;5040720;28;20481;-77
2024/01/02 05:17:26;;;;;;;1.00;0.30;;;;;;;;;;5043499;28;20557;-77
2024/01/02 05:19:56;;;;;;;0.60;0.40;;;;;;;;;;5041322;28;20436;-78
2024/01/02 05:22:23;;;;;;;1.13;0.50;;;;;;;;;;5040156;28;20496;-78
2024/01/02 05:24:50;;;;;;;0.80;0.40;;;;;;;;;;5043515;28;20487;-77
2024/01/02 05:27:21;;;;;;;1.08;0.40;;;;;;;;;;5034484;28;20437;-77
2024/01/02 05:29:50;;;;;;;0.90;0.40;;;;;;;;;;5038231;28;20800;-76
2024/01/02 05:32:17;;;;;;;1.05;0.70;;;;;;;;;;5037544;28;20429;-75
2024/01/02 05:34:44;;;;;;;0.40;0.40;;;;;;;;;;5038352;28;20948;-76
2024/01/02 05:37:16;;;;;;;0.70;0.50;;;;;;;;;;5032776;28;20481;-77
2024/01/02 05:39:43;;;;;;;1.10;0.60;;;;;;;;;;5034634;28;20439;-76
2024/01/02 05:42:10;;;;;;;0.40;0.40;;;;;;;;;;5047532;28;20433;-77
2024/01/02 05:44:37;;;;;;;0.70;0.50;;;;;;;;;;5048458;28;20445;-77
2024/01/02 05:47:05;;;;;;;1.42;0.47;;;;;;;;;;5035502;28;20492;-77
2024/01/02 05:49:32;;;;;;;0.47;0.40;;;;;;;;;;5040890;28;20493;-76
2024/01/02 05:52:16;;;;;;;0.90;0.30;;;;;;;;;;5041030;28;20441;-77
2024/01/02 05:54:43;;;;;;;0.93;0.50;;;;;;;;;;5034068;28;20451;-75
2024/01/02 05:57:11;;;;;;;2.00;0.50;;;;;;;;;;5035392;28;20433;-76
2024/01/02 05:59:39;;;;;;;1.35;0.70;;;;;;;;;;5043671;28;20859;-76
2024/01/02 06:02:07;;;;;;;0.95;0.52;;;;;;;;;;5042858;28;20429;-73
2024/01/02 06:04:34;;;;;;;1.50;0.60;;;;;;;;;;5038526;28;20426;-74
2024/01/02 06:07:04;;;;;;;0.60;0.50;;;;;;;;;;5035293;28;20433;-74
2024/01/02 06:09:33;;;;;;;0.43;0.43;;;;;;;;;;5040586;28;21130;-74
2024/01/02 06:12:00;;;;;;;0.70;0.60;;;;;;;;;;5046816;28;20432;-75
2024/01/02 06:14:27;;;;;;;0.47;0.47;;;;;;;;;;5044821;28;20435;-74
2024/01/02 06:16:55;;;;;;;0.43;0.40;;;;;;;;;;5037064;28;20466;-73
2024/01/02 06:19:22;;;;;;;0.63;0.40;;;;;;;;;;5042753;28;20435;-74
2024/01/02 06:21:49;;;;;;;0.50;0.50;;;;;;;;;;5029676;28;20442;-74
2024/01/02 06:24:19;;;;;;;0.40;0.30;;;;;;;;;;5041250;28;20472;-74
2024/01/02 06:26:46;;;;;;;0.47;0.47;;;;;;;;;;5033445;28;20429;-74
2024/01/02 06:29:13;;;;;;;0.80;0.50;;;;;;;;;;5036304;28;20433;-74
2024/01/02 06:31:41;;;;;;;0.60;0.35;;;;;;;;;;5045112;28;20772;-74
2024/01/02 06:34:08;;;;;;;0.50;0.50;;;;;;;;;;5039576;28;20486;-74
2024/01/02 06:36:39;;;;;;;0.77;0.52;;;;;;;;;;5041739;28;20434;-74
2024/01/02 06:39:06;;;;;;;0.50;0.40;;;;;;;;;;5036894;28;20454;-74
2024/01/02 06:41:33;;;;;;;0.50;0.40;;;;;;;;;;5036341;28;20485;-74
2024/01/02 06:44:00;;;;;;;0.30;0.30;;;;;;;;;;5036334;28;20435;-74
2024/01/02 06:46:28;;;;;;;0.73;0.40;;;;;;;;;;5046847;28;20437;-73
2024/01/02 06:48:55;;;;;;;0.20;0.20;;;;;;;;;;5035286;28;20430;-72
2024/01/02 06:51:22;;;;;;;1.10;0.30;;;;;;;;;;5044039;28;20616;-73
2024/01/02 06:53:49;;;;;;;1.52;0.30;;;;;;;;;;5039240;28;20513;-73
2024/01/02 06:56:20;;;;;;;1.10;0.40;;;;;;;;;;5037810;28;20431;-73
2024/01/02 06:58:50;;;;;;;0.52;0.40;;;;;;;;;;5044233;28;20433;-73
2024/01/02 07:01:17;;;;;;;0.30;0.30;;;;;;;;;;5041313;28;20433;-73
2024/01/02 07:03:45;;;;;;;0.40;0.40;;;;;;;;;;5038597;28;20442;-73
2024/01/02 07:06:12;;;;;;;0.30;0.30;;;;;;;;;;5041270;28;20429;-73
2024/01/02 07:08:39;;;;;;;0.90;0.30;;;;;;;;;;5035293;28;20488;-73
2024/01/02 07:11:06;;;;;;;0.30;0.30;;;;;;;;;;5039284;28;20427;-73
2024/01/02 07:13:33;;;;;;;0.38;0.38;;;;;;;;;;5040658;28;20498;-73
2024/01/02 07:16:01;;;;;;;0.70;0.40;;;;;;;;;;5038488;28;20520;-73
2024/01/02 07:18:31;;;;;;;0.55;0.30;;;;;;;;;;5038950;28;20434;-73
2024/01/02 07:20:58;;;;;;;0.30;0.20;;;;;;;;;;5032393;28;20423;-72
2024/01/02 07:23:26;;;;;;;0.30;0.30;;;;;;;;;;5042351;28;20782;-72
2024/01/02 07:25:56;;;;;;;0.32;0.32;;;;;;;;;;5040389;28;20506;-72
2024/01/02 07:28:23;;;;;;;0.40;0.30;;;;;;;;;;5037855;28;20429;-72
2024/01/02 07:30:53;;;;;;;0.25;0.25;;;;;;;;;;5038990;28;20503;-72
2024/01/02 07:33:20;;;;;;;0.20;0.10;;;;;;;;;;5036041;28;20482;-72
2024/01/02 07:35:47;;;;;;;0.20;0.20;;;;;;;;;;5030873;28;20428;-72
2024/01/02 07:38:15;;;;;;;0.80;0.20;;;;;;;;;;5040673;28;20460;-73
2024/01/02 07:40:44;;;;;;;0.20;0.20;;;;;;;;;;5031498;28;20432;-72
2024/01/02 07:43:11;;;;;;;0.10;0.10;;;;;;;;;;5045264;28;20437;-72
2024/01/02 07:45:39;;;;;;;0.13;0.13;;;;;;;;;;5035898;28;20431;-72
2024/01/02 07:48:15;;;;;;;0.20;0.20;;;;;;;;;;5048446;28;20482;-71
2024/01/02 07:50:42;;;;;;;0.20;0.20;;;;;;;;;;5038285;28;21075;-71
2024/01/02 07:53:10;;;;;;;0.10;0.10;;;;;;;;;;5045421;28;20424;-71
2024/01/02 07:55:40;;;;;;;0.63;0.30;;;;;;;;;;5043070;28;20429;-71
2024/01/02 07:58:07;;;;;;;0.20;0.20;;;;;;;;;;5042102;28;20899;-70
2024/01/02 08:00:34;;;;;;;0.70;0.30;;;;;;;;;;5042029;28;20834;-71
2024/01/02 08:03:02;;;;;;;0.10;0.10;;;;;;;;;;5039999;28;21000;-71
2024/01/02 08:05:29;;;;;;;0.10;0.10;;;;;;;;;;5036959;28;20858;-71
2024/01/02 08:07:56;;;;;;;0.20;0.20;;;;;;;;;;5040945;28;20510;-71
2024/01/02 08:10:24;;;;;;;0.30;0.30;;;;;;;;;;5037726;28;20501;-71
2024/01/02 08:12:51;;;;;;;0.22;0.22;;;;;;;;;;5043597;28;20911;-72
2024/01/02 08:15:18;;;;;;;0.23;0.20;;;;;;;;;;5039087;28;20997;-71
2024/01/02 08:18:03;;;;;;;0.10;0.10;;;;;;;;;;5034643;28;20514;-72
2024/01/02 08:20:31;;;;;;;0.10;0.10;;;;;;;;;;5044430;28;20427;-72
2024/01/02 08:22:58;;;;;;;0.17;0.10;;;;;;;;;;5036126;28;20434;-69
2024/01/02 08:25:28;;;;;;;0.17;0.15;;;;;;;;;;5037001;28;20439;-69
2024/01/02 08:27:55;;;;;;;2.13;0.20;;;;;;;;;;5036210;28;21012;-71
2024/01/02 08:30:23;;;;;;;0.20;0.20;;;;;;;;;;5036590;28;20465;-69
2024/01/02 08:32:50;;;;;;;0.45;0.28;;;;;;;;;;5036410;28;20442;-69
2024/01/02 08:35:18;;;;;;;0.20;0.20;;;;;;;;;;5034528;28;20429;-70
2024/01/02 08:37:45;;;;;;;0.20;0.20;;;;;;;;;;5041807;28;20480;-69
2024/01/02 08:40:12;;;;;;;0.20;0.20;;;;;;;;;;5040590;28;20429;-69
2024/01/02 08:42:39;;;;;;;0.32;0.20;;;;;;;;;;5046726;28;20487;-69
2024/01/02 08:45:09;;;;;;;0.20;0.20;;;;;;;;;;5041443;28;20436;-70
2024/01/02 08:47:38;;;;;;;0.30;0.30;;;;;;;;;;5039479;28;20469;-69
2024/01/02 08:50:08;;;;;;;0.10;0.10;;;;;;;;;;5048676;28;20440;-69
2024/01/02 08:52:36;;;;;;;0.60;0.20;;;;;;;;;;5047663;28;20765;-69
2024/01/02 08:55:03;;;;;;;0.15;0.15;;;;;;;;;;5041072;28;20435;-69
2024/01/02 08:57:31;;;;;;;0.10;0.10;;;;;;;;;;5035289;28;20433;-69
2024/01/02 09:00:01;;;;;;;0.20;0.20;;;;;;;;;;5049803;28;20428;-69
2024/01/02 09:02:31;;;;;;;0.20;0.20;;;;;;;;;;5045572;28;20439;-70
2024/01/02 09:04:58;;;;;;;0.20;0.20;;;;;;;;;;5039538;28;20438;-69
2024/01/02 09:07:25;;;;;;;0.20;0.20;;;;;;;;;;5046334;28;20429;-69
2024/01/02 09:09:59;;;;;;;0.20;0.20;;;;;;;;;;5044902;28;20505;-69
2024/01/02 09:12:26;;;;;;;0.20;0.20;;;;;;;;;;5046752;28;20435;-69
2024/01/02 09:14:56;;;;;;;0.20;0.20;;;;;;;;;;5046492;28;20429;-69
2024/01/02 09:17:26;;;;;;;0.20;0.20;;;;;;;;;;5037728;28;20433;-69
2024/01/02 09:19:54;;;;;;;0.20;0.20;;;;;;;;;;5035742;28;20433;-68
2024/01/02 09:22:23;;;;;;;0.20;0.20;;;;;;;;;;5037145;28;20481;-68
2024/01/02 09:24:50;;;;;;;0.20;0.20;;;;;;;;;;5045983;28;20433;-69
2024/01/02 09:27:18;;;;;;;0.20;0.20;;;;;;;;;;5045076;28;20425;-68
2024/01/02 09:29:45;;;;;;;0.30;0.30;;;;;;;;;;5042045;28;21196;-68
2024/01/02 09:32:16;;;;;;;0.30;0.30;;;;;;;;;;5038468;28;20425;-68
2024/01/02 09:34:46;;;;;;;0.20;0.20;;;;;;;;;;5036892;28;20438;-68
2024/01/02 09:37:19;;;;;;;0.20;0.20;;;;;;;;;;5048082;28;20516;-69
2024/01/02 09:39:46;;;;;;;0.10;0.10;;;;;;;;;;5045537;28;20486;-68
2024/01/02 09:42:13;;;;;;;0.40;0.10;;;;;;;;;;5043171;28;20460;-68
2024/01/02 09:45:01;;;;;;;0.30;0.30;;;;;;;;;;5039147;28;20430;-68
2024/01/02 09:47:31;;;;;;;0.20;0.20;;;;;;;;;;5032968;28;20453;-68
2024/01/02 09:50:03;;;;;;;0.20;0.20;;;;;;;;;;5045419;28;20457;-68
2024/01/02 09:52:31;;;;;;;0.20;0.20;;;;;;;;;;5034890;28;20439;-68
2024/01/02 09:55:07;;;;;;;0.25;0.25;;;;;;;;;;5040582;28;20440;-68
2024/01/02 09:57:45;;;;;;;0.20;0.20;;;;;;;;;;5042943;28;20435;-68
2024/01/02 10:00:12;;;;;;;0.20;0.20;;;;;;;;;;5036193;28;20519;-68
2024/01/02 10:02:54;;;;;;;0.25;0.20;;;;;;;;;;5043207;28;20425;-69
2024/01/02 10:05:42;;;;;;;0.50;0.50;;;;;;;;;;5028370;28;20515;-68
2024/01/02 10:08:28;;;;;;;0.25;0.25;;;;;;;;;;5041250;28;20902;-68
2024/01/02 10:11:13;;;;;;;0.20;0.20;;;;;;;;;;5040659;28;20431;-68
2024/01/02 10:13:47;;;;;;;0.20;0.20;;;;;;;;;;5041588;28;20433;-68
2024/01/02 10:16:32;;;;;;;0.30;0.30;;;;;;;;;;5033824;28;20442;-68
2024/01/02 10:19:08;;;;;;;0.68;0.20;;;;;;;;;;5038434;28;20568;-68
2024/01/02 10:21:42;;;;;;;0.30;0.30;;;;;;;;;;5045427;28;20444;-69
2024/01/02 10:24:15;;;;;;;0.30;0.28;;;;;;;;;;5039096;28;20503;-68
2024/01/02 10:26:56;;;;;;;0.20;0.20;;;;;;;;;;5048510;28;20538;-68
2024/01/02 10:29:27;;;;;;;0.20;0.20;;;;;;;;;;5043821;28;20899;-68
2024/01/02 10:32:03;;;;;;;0.40;0.20;;;;;;;;;;5034010;28;20445;-68
2024/01/02 10:34:32;;;;;;;0.30;0.30;;;;;;;;;;5043115;28;21004;-68
2024/01/02 10:37:04;;;;;;;0.30;0.30;;;;;;;;;;5033466;28;20426;-68
2024/01/02 10:39:31;;;;;;;0.70;0.30;;;;;;;;;;5039078;28;20503;-68
2024/01/02 10:42:02;;;;;;;0.20;0.20;;;;;;;;;;5038879;28;20433;-68
2024/01/02 10:44:42;;;;;;;0.30;0.30;;;;;;;;;;5040987;28;20544;-68
2024/01/02 10:47:27;;;;;;;0.30;0.30;;;;;;;;;;5040616;28;20504;-68
2024/01/02 10:49:59;;;;;;;0.20;0.20;;;;;;;;;;5039967;28;20444;-67
2024/01/02 10:52:51;;;;;;;0.20;0.20;;;;;;;;;;5037721;28;20772;-68
2024/01/02 10:55:22;;;;;;;0.32;0.32;;;;;;;;;;5035769;28;20514;-67
2024/01/02 10:57:52;;;;;;;0.47;0.30;;;;;;;;;;5039257;28;20826;-68
2024/01/02 11:00:22;;;;;;;0.20;0.20;;;;;;;;;;5036348;28;20458;-68
2024/01/02 11:02:57;;;;;;;0.20;0.20;;;;;;;;;;5042516;28;20429;-68
2024/01/02 11:05:27;;;;;;;0.15;0.15;;;;;;;;;;5042399;28;20433;-67
2024/01/02 11:08:15;;;;;;;0.20;0.20;;;;;;;;;;5048270;28;20818;-68
2024/01/02 11:10:44;;;;;;;0.20;0.20;;;;;;;;;;5043716;28;20433;-68
2024/01/02 11:13:12;;;;;;;0.20;0.20;;;;;;;;;;5032045;28;20471;-68
2024/01/02 11:15:43;;;;;;;0.20;0.20;;;;;;;;;;5034528;28;20899;-68
2024/01/02 11:18:11;;;;;;;0.17;0.17;;;;;;;;;;5051532;28;20448;-68
2024/01/02 11:20:47;;;;;;;0.20;0.20;;;;;;;;;;5042934;28;20961;-68
2024/01/02 11:23:16;;;;;;;0.30;0.30;;;;;;;;;;5047061;28;20830;-68
2024/01/02 11:26:09;;;;;;;0.20;0.20;;;;;;;;;;5050827;28;21137;-68
2024/01/02 11:28:42;;;;;;;0.20;0.20;;;;;;;;;;5035954;28;20469;-68
2024/01/02 11:31:10;;;;;;;0.27;0.27;;;;;;;;;;5047115;28;20822;-68
2024/01/02 11:33:53;;;;;;;0.20;0.20;;;;;;;;;;5044412;28;20433;-68
2024/01/02 11:36:31;;;;;;;0.30;0.30;;;;;;;;;;5047944;28;20436;-68
2024/01/02 11:39:03;;;;;;;0.20;0.20;;;;;;;;;;5041851;28;20455;-68
2024/01/02 11:41:33;;;;;;;0.20;0.20;;;;;;;;;;5046754;28;20464;-68
2024/01/02 11:44:09;;;;;;;0.20;0.20;;;;;;;;;;5044234;28;20466;-68
2024/01/02 11:46:36;;;;;;;0.20;0.20;;;;;;;;;;5037842;28;20425;-68
2024/01/02 11:49:11;;;;;;;0.20;0.20;;;;;;;;;;5042040;28;20505;-68
2024/01/02 11:51:39;;;;;;;0.20;0.20;;;;;;;;;;5039693;28;20436;-67
2024/01/02 11:54:17;;;;;;;0.70;0.20;;;;;;;;;;5039308;28;20436;-68
2024/01/02 11:56:44;;;;;;;1.10;0.17;;;;;;;;;;5041348;28;20525;-68
2024/01/02 11:59:39;;;;;;;0.30;0.20;;;;;;;;;;5042176;28;20485;-68
2024/01/02 12:02:12;;;;;;;0.80;0.20;;;;;;;;;;5046015;28;20486;-67
2024/01/02 12:04:59;;;;;;;0.20;0.20;;;;;;;;;;5040408;28;20441;-68
2024/01/02 12:07:27;;;;;;;0.30;0.20;;;;;;;;;;5043685;28;20429;-68
2024/01/02 12:09:56;;;;;;;0.20;0.20;;;;;;;;;;5040027;28;20446;-69
2024/01/02 12:12:42;;;;;;;0.20;0.20;;;;;;;;;;5045231;28;20450;-68
2024/01/02 12:15:10;;;;;;;1.20;0.20;;;;;;;;;;5043506;28;20448;-68
2024/01/02 12:17:55;;;;;;;0.10;0.10;;;;;;;;;;5034636;28;20439;-68
2024/01/02 12:20:24;;;;;;;0.20;0.20;;;;;;;;;;5038163;28;20461;-67
2024/01/02 12:22:52;;;;;;;0.40;0.40;;;;;;;;;;5039749;28;20475;-68
2024/01/02 12:25:20;;;;;;;0.20;0.20;;;;;;;;;;5039347;28;20955;-67
2024/01/02 12:27:48;;;;;;;1.58;0.30;;;;;;;;;;5044656;28;20433;-68
2024/01/02 12:30:21;;;;;;;0.28;0.28;;;;;;;;;;5040767;28;20429;-68
2024/01/02 12:32:55;;;;;;;0.20;0.20;;;;;;;;;;5037019;28;20521;-68
2024/01/02 12:35:29;;;;;;;0.30;0.30;;;;;;;;;;5042487;28;20437;-68
2024/01/02 12:38:14;;;;;;;0.30;0.30;;;;;;;;;;5045842;28;20445;-68
2024/01/02 12:40:47;;;;;;;0.17;0.17;;;;;;;;;;5043619;28;20433;-68
2024/01/02 12:43:25;;;;;;;0.28;0.28;;;;;;;;;;5039586;28;20923;-68
2024/01/02 12:45:56;;;;;;;0.25;0.25;;;;;;;;;;5038744;28;20433;-69
2024/01/02 12:48:24;;;;;;;0.20;0.20;;;;;;;;;;5043041;28;21116;-69
2024/01/02 12:50:54;;;;;;;0.20;0.20;;;;;;;;;;5038222;28;20433;-69
2024/01/02 12:53:25;;;;;;;0.30;0.30;;;;;;;;;;5044605;28;20955;-69
2024/01/02 12:55:55;;;;;;;0.40;0.40;;;;;;;;;;5035641;28;20435;-69
2024/01/02 12:58:30;;;;;;;0.80;0.47;;;;;;;;;;5042507;28;20432;-70
2024/01/02 13:00:59;;;;;;;0.10;0.10;;;;;;;;;;5035658;28;20442;-70
2024/01/02 13:03:28;;;;;;;0.40;0.20;;;;;;;;;;5039824;28;20609;-69
2024/01/02 13:05:55;;;;;;;0.17;0.17;;;;;;;;;;5039463;28;20431;-69
2024/01/02 13:08:23;;;;;;;0.20;0.20;;;;;;;;;;5046717;28;20504;-68
2024/01/02 13:10:50;;;;;;;1.20;0.22;;;;;;;;;;5043642;28;20430;-69
2024/01/02 13:13:18;;;;;;;0.55;0.40;;;;;;;;;;5043876;28;20511;-69
2024/01/02 13:15:50;;;;;;;0.20;0.20;;;;;;;;;;5044754;28;20434;-69
2024/01/02 13:18:18;;;;;;;0.20;0.20;;;;;;;;;;5038520;28;20435;-69
2024/01/02 13:20:46;;;;;;;0.10;0.10;;;;;;;;;;5044405;28;20784;-69
2024/01/02 13:23:16;;;;;;;0.20;0.20;;;;;;;;;;5041508;28;20437;-69
2024/01/02 13:25:43;;;;;;;0.20;0.20;;;;;;;;;;5038766;28;20469;-69
2024/01/02 13:28:17;;;;;;;0.20;0.20;;;;;;;;;;5033540;28;20511;-69
2024/01/02 13:30:46;;;;;;;0.20;0.20;;;;;;;;;;5044031;28;20800;-70
2024/01/02 13:33:17;;;;;;;0.20;0.20;;;;;;;;;;5044125;28;20456;-70
2024/01/02 13:35:48;;;;;;;0.20;0.20;;;;;;;;;;5038601;28;20439;-70
2024/01/02 13:38:18;;;;;;;0.30;0.30;;;;;;;;;;5040000;28;20552;-71
2024/01/02 13:40:46;;;;;;;0.40;0.30;;;;;;;;;;5045191;28;20978;-70
2024/01/02 13:43:13;;;;;;;0.38;0.20;;;;;;;;;;5042083;28;20436;-70
2024/01/02 13:45:41;;;;;;;0.70;0.20;;;;;;;;;;5036062;28;20433;-71
2024/01/02 13:48:10;;;;;;;0.35;0.25;;;;;;;;;;5044562;28;20436;-71
2024/01/02 13:50:38;;;;;;;0.20;0.20;;;;;;;;;;5036792;28;20781;-70
2024/01/02 13:53:06;;;;;;;0.20;0.20;;;;;;;;;;5045206;28;20437;-71
2024/01/02 13:55:35;;;;;;;0.28;0.20;;;;;;;;;;5040571;28;20433;-71
2024/01/02 13:58:13;;;;;;;0.20;0.20;;;;;;;;;;5042808;28;20429;-71
2024/01/02 14:00:52;;;;;;;0.20;0.20;;;;;;;;;;5042985;28;20463;-72
2024/01/02 14:03:20;;;;;;;0.55;0.25;;;;;;;;;;5046136;28;20433;-71
2024/01/02 14:05:56;;;;;;;0.20;0.20;;;;;;;;;;5038010;28;20522;-71
2024/01/02 14:08:31;;;;;;;0.15;0.15;;;;;;;;;;5033571;28;20471;-71
2024/01/02 14:11:06;;;;;;;0.30;0.30;;;;;;;;;;5038114;28;20430;-70
2024/01/02 14:13:35;;;;;;;0.45;0.20;;;;;;;;;;5047654;28;20464;-71
2024/01/02 14:16:06;;;;;;;0.90;0.30;;;;;;;;;;5031807;28;20932;-71
2024/01/02 14:18:37;;;;;;;0.20;0.20;;;;;;;;;;5037718;28;20433;-71
2024/01/02 14:21:13;;;;;;;0.20;0.20;;;;;;;;;;5052777;28;20438;-71
2024/01/02 14:23:46;;;;;;;0.20;0.20;;;;;;;;;;5031492;28;20438;-71
2024/01/02 14:26:20;;;;;;;0.40;0.40;;;;;;;;;;5039374;28;20430;-71
2024/01/02 14:28:53;;;;;;;0.20;0.20;;;;;;;;;;5034729;28;20467;-71
2024/01/02 14:31:35;;;;;;;0.20;0.20;;;;;;;;;;5033569;28;20585;-71
2024/01/02 14:34:12;;;;;;;0.10;0.10;;;;;;;;;;5034147;28;20499;-71
2024/01/02 14:36:46;;;;;;;0.85;0.20;;;;;;;;;;5031850;28;20905;-71
2024/01/02 14:39:20;;;;;;;0.20;0.20;;;;;;;;;;5038095;28;20489;-71
2024/01/02 14:42:06;;;;;;;0.30;0.30;;;;;;;;;;5030856;28;20513;-72
2024/01/02 14:44:37;;;;;;;0.25;0.10;;;;;;;;;;5038362;28;20432;-71
2024/01/02 14:47:22;;;;;;;0.75;0.15;;;;;;;;;;5040370;28;20429;-71
2024/01/02 14:49:53;;;;;;;0.50;0.50;;;;;;;;;;5040838;28;20423;-71
2024/01/02 14:52:39;;;;;;;0.50;0.20;;;;;;;;;;5041627;28;20434;-71
2024/01/02 14:55:38;;;;;;;0.20;0.20;;;;;;;;;;5039210;28;20448;-71
2024/01/02 14:58:19;;;;;;;0.20;0.20;;;;;;;;;;4965714;28;20449;-71
2024/01/02 15:00:55;;;;;;;0.20;0.20;;;;;;;;;;5044626;28;20984;-71